Time;durP1;ratioP1;P1;durP2;ratioP2;P2;SDS_P1;SDS_P2;PMS_P1;PMS_P2;Temp;Humidity;BMP_temperature;BMP_pressure;BME280_temperature;BME280_humidity;BME280_pressure;Samples;Min_cycle;Max_cycle;Signal;HPM_P1;HPM_P2
2022/04/06 00:00:46;;;;;;;50.05;25.27;;;;;;;8.62;100.00;100306.38;7391212;19;20551;-59
2022/04/06 00:03:16;;;;;;;46.95;23.63;;;;;;;8.65;100.00;100303.66;7390585;19;20025;-58
2022/04/06 00:05:45;;;;;;;51.13;24.80;;;;;;;8.66;100.00;100299.28;7396513;19;20014;-57
2022/04/06 00:08:14;;;;;;;53.13;25.02;;;;;;;8.65;100.00;100293.22;7402953;19;20015;-60
2022/04/06 00:10:46;;;;;;;48.97;23.55;;;;;;;8.66;100.00;100297.50;7400688;19;20347;-58
2022/04/06 00:13:15;;;;;;;45.17;22.75;;;;;;;8.62;100.00;100287.25;7396022;19;20111;-56
2022/04/06 00:15:44;;;;;;;44.95;22.33;;;;;;;8.68;100.00;100293.97;7393301;19;20013;-59
2022/04/06 00:18:13;;;;;;;42.28;22.88;;;;;;;8.69;100.00;100285.22;7389270;19;20467;-56
2022/04/06 00:20:42;;;;;;;47.58;22.40;;;;;;;8.65;100.00;100279.28;7388492;19;20014;-54
2022/04/06 00:23:12;;;;;;;43.03;21.48;;;;;;;8.64;100.00;100282.84;7388475;19;20011;-56
2022/04/06 00:25:40;;;;;;;41.28;20.38;;;;;;;8.64;100.00;100277.63;7388341;19;20010;-57
2022/04/06 00:28:12;;;;;;;38.45;19.00;;;;;;;8.65;100.00;100287.13;7390263;19;20014;-58
2022/04/06 00:30:41;;;;;;;43.65;20.05;;;;;;;8.64;100.00;100283.66;7394106;19;20011;-56
2022/04/06 00:33:10;;;;;;;36.38;18.70;;;;;;;8.62;100.00;100282.03;7393373;19;20015;-54
2022/04/06 00:35:39;;;;;;;41.42;19.88;;;;;;;8.63;100.00;100286.34;7395367;19;20025;-55
2022/04/06 00:38:10;;;;;;;33.67;17.42;;;;;;;8.64;100.00;100278.44;7395693;19;20014;-54
2022/04/06 00:40:40;;;;;;;38.63;18.55;;;;;;;8.65;100.00;100284.50;7394836;19;20024;-54
2022/04/06 00:43:13;;;;;;;41.22;20.13;;;;;;;8.73;100.00;100277.19;7394647;19;20018;-57
2022/04/06 00:45:43;;;;;;;39.17;19.27;;;;;;;8.65;100.00;100277.53;7394907;19;20021;-56
2022/04/06 00:48:13;;;;;;;40.65;18.83;;;;;;;8.68;100.00;100266.09;7394865;19;20336;-52
2022/04/06 00:50:43;;;;;;;43.53;19.25;;;;;;;8.67;100.00;100267.03;7394483;19;20483;-55
2022/04/06 00:53:14;;;;;;;38.95;19.15;;;;;;;8.69;100.00;100266.94;7393574;19;20015;-54
2022/04/06 00:55:43;;;;;;;40.42;20.00;;;;;;;8.63;100.00;100265.47;7395208;19;20605;-55
2022/04/06 00:58:15;;;;;;;43.17;19.70;;;;;;;8.61;100.00;100265.53;7393982;19;20014;-53
2022/04/06 01:00:44;;;;;;;42.15;19.70;;;;;;;8.64;100.00;100267.16;7394573;19;20025;-54
2022/04/06 01:03:12;;;;;;;44.70;19.60;;;;;;;8.61;100.00;100268.16;7394386;19;20367;-56
2022/04/06 01:05:41;;;;;;;37.85;19.45;;;;;;;8.58;100.00;100264.81;7393801;19;20517;-54
2022/04/06 01:08:11;;;;;;;44.08;19.30;;;;;;;8.56;100.00;100264.88;7393328;19;20017;-54
2022/04/06 01:10:40;;;;;;;41.47;19.40;;;;;;;8.55;100.00;100260.56;7393818;19;20025;-56
2022/04/06 01:13:09;;;;;;;36.90;19.20;;;;;;;8.55;100.00;100244.06;7393301;19;20137;-60
2022/04/06 01:15:41;;;;;;;40.35;19.63;;;;;;;8.57;100.00;100250.09;7393746;19;20479;-56
2022/04/06 01:18:11;;;;;;;34.88;19.30;;;;;;;8.54;100.00;100250.19;7394287;19;20025;-55
2022/04/06 01:20:40;;;;;;;41.42;20.35;;;;;;;8.47;100.00;100242.63;7393180;19;20164;-55
2022/04/06 01:23:12;;;;;;;41.72;21.10;;;;;;;8.45;100.00;100254.94;7394182;19;20017;-56
2022/04/06 01:25:42;;;;;;;42.63;20.48;;;;;;;8.52;100.00;100249.44;7394108;19;20340;-56
2022/04/06 01:28:10;;;;;;;42.72;20.02;;;;;;;8.54;100.00;100242.34;7394398;19;20018;-57
2022/04/06 01:30:39;;;;;;;39.70;20.00;;;;;;;8.51;100.00;100235.53;7393845;19;20022;-59
2022/04/06 01:33:09;;;;;;;39.38;18.50;;;;;;;8.49;100.00;100234.75;7391690;19;20018;-59
2022/04/06 01:35:41;;;;;;;39.00;19.13;;;;;;;8.51;100.00;100237.28;7393068;19;20373;-57
2022/04/06 01:38:12;;;;;;;37.83;19.20;;;;;;;8.53;100.00;100231.06;7393078;19;20029;-57
2022/04/06 01:40:41;;;;;;;40.25;19.25;;;;;;;8.51;100.00;100238.16;7391044;19;20470;-56
2022/04/06 01:43:10;;;;;;;38.05;18.52;;;;;;;8.53;100.00;100233.69;7393252;19;20018;-57
2022/04/06 01:45:40;;;;;;;34.60;17.83;;;;;;;8.49;100.00;100230.34;7392734;19;20018;-57
2022/04/06 01:48:09;;;;;;;34.40;17.50;;;;;;;8.49;100.00;100238.19;7388919;19;20036;-59
2022/04/06 01:53:22;;;;;;;36.40;16.17;;;;;;;8.51;100.00;100229.44;7389258;19;20010;-59
2022/04/06 01:55:51;;;;;;;35.63;16.10;;;;;;;8.46;100.00;100229.66;7392918;19;20501;-57
2022/04/06 01:58:20;;;;;;;33.42;15.40;;;;;;;8.46;100.00;100235.72;7390772;19;20026;-56
2022/04/06 02:00:49;;;;;;;34.28;14.52;;;;;;;8.46;100.00;100227.03;7392221;19;20018;-54
2022/04/06 02:03:18;;;;;;;35.92;15.38;;;;;;;8.49;100.00;100224.28;7391463;19;20347;-55
2022/04/06 02:05:47;;;;;;;29.13;14.82;;;;;;;8.47;100.00;100229.59;7391974;19;20018;-59
2022/04/06 02:08:17;;;;;;;30.83;14.43;;;;;;;8.45;100.00;100221.00;7391294;19;20511;-60
2022/04/06 02:10:48;;;;;;;31.63;14.15;;;;;;;8.49;100.00;100222.53;7390816;19;20021;-56
2022/04/06 02:13:17;;;;;;;33.58;14.15;;;;;;;8.48;100.00;100215.63;7390394;19;20029;-58
2022/04/06 02:15:48;;;;;;;30.05;13.90;;;;;;;8.46;100.00;100221.81;7392151;19;20007;-53
2022/04/06 02:18:17;;;;;;;31.30;14.15;;;;;;;8.41;100.00;100222.00;7391693;19;20407;-55
2022/04/06 02:20:46;;;;;;;31.63;12.50;;;;;;;8.43;100.00;100207.09;7391649;19;20007;-59
2022/04/06 02:23:15;;;;;;;32.88;13.77;;;;;;;8.41;100.00;100213.31;7391065;19;20025;-60
2022/04/06 02:25:44;;;;;;;29.42;13.05;;;;;;;8.41;100.00;100219.41;7391325;19;20340;-54
2022/04/06 02:28:15;;;;;;;29.58;12.70;;;;;;;8.38;100.00;100222.16;7391389;19;20026;-54
2022/04/06 02:30:44;;;;;;;28.38;12.55;;;;;;;8.41;100.00;100222.00;7390279;19;20332;-55
2022/04/06 02:33:13;;;;;;;27.65;12.65;;;;;;;8.43;100.00;100217.56;7390968;19;20026;-57
2022/04/06 02:35:42;;;;;;;29.63;12.23;;;;;;;8.40;100.00;100209.88;7391211;19;20370;-54
2022/04/06 02:38:11;;;;;;;28.77;11.75;;;;;;;8.39;100.00;100209.94;7392017;19;20025;-58
2022/04/06 02:40:40;;;;;;;27.30;12.25;;;;;;;8.36;100.00;100204.84;7390508;19;20014;-55
2022/04/06 02:43:09;;;;;;;27.55;11.27;;;;;;;8.39;100.00;100208.16;7391847;19;20026;-57
2022/04/06 02:45:40;;;;;;;31.90;11.90;;;;;;;8.40;100.00;100206.41;7392147;19;20021;-57
2022/04/06 02:48:09;;;;;;;28.35;12.00;;;;;;;8.40;100.00;100196.81;7392783;19;20010;-57
2022/04/06 02:50:38;;;;;;;25.67;11.02;;;;;;;8.37;100.00;100196.09;7390342;19;20019;-52
2022/04/06 02:53:07;;;;;;;26.20;10.15;;;;;;;8.39;100.00;100197.72;7389209;19;20349;-53
2022/04/06 02:55:36;;;;;;;26.20;10.68;;;;;;;8.38;100.00;100193.44;7391773;19;20078;-57
2022/04/06 02:58:05;;;;;;;23.42;10.63;;;;;;;8.36;100.00;100192.63;7391995;19;20010;-54
2022/04/06 03:00:35;;;;;;;28.48;10.65;;;;;;;8.35;100.00;100196.16;7391967;19;20019;-57
2022/04/06 03:03:07;;;;;;;25.50;10.35;;;;;;;8.34;100.00;100188.41;7390421;19;20046;-58
2022/04/06 03:05:36;;;;;;;24.13;10.95;;;;;;;8.31;100.00;100190.25;7393986;19;20054;-59
2022/04/06 03:08:05;;;;;;;25.83;9.98;;;;;;;8.32;100.00;100184.13;7392171;19;20010;-51
2022/04/06 03:10:34;;;;;;;25.50;9.95;;;;;;;8.34;100.00;100185.78;7391864;19;20014;-55
2022/04/06 03:13:03;;;;;;;22.02;9.80;;;;;;;8.32;100.00;100178.03;7391918;19;20014;-52
2022/04/06 03:15:32;;;;;;;21.20;8.98;;;;;;;8.31;100.00;100185.03;7392615;19;20018;-54
2022/04/06 03:18:02;;;;;;;17.95;9.10;;;;;;;8.35;100.00;100166.59;7391666;19;20375;-53
2022/04/06 03:20:34;;;;;;;18.05;8.50;;;;;;;8.34;99.89;100172.72;7390876;19;20025;-54
2022/04/06 03:23:03;;;;;;;23.20;9.03;;;;;;;8.28;99.82;100174.72;7391042;19;20025;-56
2022/04/06 03:25:32;;;;;;;24.58;8.73;;;;;;;8.28;99.35;100169.50;7391760;19;20048;-54
2022/04/06 03:28:01;;;;;;;18.02;8.00;;;;;;;8.28;99.69;100168.63;7392418;19;20023;-56
2022/04/06 03:30:29;;;;;;;15.82;7.85;;;;;;;8.22;98.88;100171.53;7392352;19;20527;-52
2022/04/06 03:32:58;;;;;;;16.63;7.53;;;;;;;8.19;98.76;100163.84;7391945;19;20011;-53
2022/04/06 03:35:27;;;;;;;17.92;7.70;;;;;;;8.20;98.55;100162.94;7391445;19;20045;-51
2022/04/06 03:37:59;;;;;;;18.33;7.40;;;;;;;8.21;97.92;100155.03;7391716;19;20114;-51
2022/04/06 03:40:28;;;;;;;17.63;7.53;;;;;;;8.20;97.57;100152.50;7390668;19;20026;-53
2022/04/06 03:42:57;;;;;;;18.63;6.95;;;;;;;8.24;96.11;100154.06;7390392;19;20344;-56
2022/04/06 03:45:26;;;;;;;17.70;6.63;;;;;;;8.21;96.67;100148.94;7391045;19;20018;-55
2022/04/06 03:47:55;;;;;;;16.63;6.80;;;;;;;8.19;96.20;100145.56;7389492;19;20014;-56
2022/04/06 03:50:24;;;;;;;17.40;5.80;;;;;;;8.05;96.99;100147.06;7389766;19;20015;-52
2022/04/06 03:52:53;;;;;;;13.20;5.55;;;;;;;8.08;96.82;100138.22;7389918;19;20561;-56
2022/04/06 03:55:25;;;;;;;17.20;5.43;;;;;;;8.10;94.54;100146.84;7388531;19;20022;-57
2022/04/06 03:57:53;;;;;;;14.60;5.22;;;;;;;8.09;94.61;100145.16;7389677;19;20052;-58
2022/04/06 04:00:22;;;;;;;15.65;5.60;;;;;;;8.10;94.37;100145.06;7388241;19;20017;-54
2022/04/06 04:02:51;;;;;;;12.50;5.30;;;;;;;8.11;94.67;100154.59;7391218;19;20622;-55
2022/04/06 04:05:21;;;;;;;16.92;5.68;;;;;;;8.12;93.51;100151.09;7393978;19;20021;-59
2022/04/06 04:07:50;;;;;;;14.15;4.97;;;;;;;8.10;93.24;100145.06;7397469;19;20376;-59
2022/04/06 04:10:20;;;;;;;12.18;4.90;;;;;;;8.13;93.89;100149.31;7397066;19;20014;-56
2022/04/06 04:12:51;;;;;;;12.30;4.70;;;;;;;8.11;93.03;100154.59;7397872;19;20463;-58
2022/04/06 04:15:20;;;;;;;11.80;5.10;;;;;;;8.13;93.03;100151.91;7393287;19;20014;-59
2022/04/06 04:17:49;;;;;;;18.08;4.82;;;;;;;8.10;93.12;100152.91;7396188;19;20376;-54
2022/04/06 04:20:18;;;;;;;13.38;4.85;;;;;;;8.15;92.15;100147.47;7396409;19;20014;-55
2022/04/06 04:22:47;;;;;;;14.52;5.05;;;;;;;8.13;92.19;100151.91;7396549;19;20051;-59
2022/04/06 04:25:16;;;;;;;10.68;4.47;;;;;;;8.09;92.67;100147.75;7394682;19;20059;-59
2022/04/06 04:27:45;;;;;;;12.35;5.00;;;;;;;8.08;93.06;100146.06;7396979;19;20018;-54
2022/04/06 04:30:17;;;;;;;16.08;4.80;;;;;;;8.11;93.35;100151.16;7395718;19;20018;-54
2022/04/06 04:32:46;;;;;;;13.20;4.57;;;;;;;8.08;93.65;100144.31;7395853;19;20014;-57
2022/04/06 04:35:15;;;;;;;15.95;5.13;;;;;;;8.10;93.63;100144.22;7392211;19;20471;-57
2022/04/06 04:37:44;;;;;;;13.07;4.28;;;;;;;8.09;93.75;100140.75;7396156;19;20014;-55
2022/04/06 04:40:16;;;;;;;12.80;4.28;;;;;;;8.10;93.74;100144.22;7395787;19;20375;-59
2022/04/06 04:42:45;;;;;;;13.65;4.75;;;;;;;8.07;92.85;100144.38;7396439;19;20485;-59
2022/04/06 04:45:16;;;;;;;13.73;4.80;;;;;;;8.05;92.52;100134.00;7394148;19;20428;-57
2022/04/06 04:47:45;;;;;;;11.75;4.72;;;;;;;8.06;92.57;100142.69;7396063;19;20029;-56
2022/04/06 04:50:14;;;;;;;11.98;4.53;;;;;;;8.03;91.98;100135.81;7394453;19;20011;-51
2022/04/06 04:52:44;;;;;;;14.25;4.95;;;;;;;8.06;92.70;100138.28;7395541;19;20015;-58
2022/04/06 04:55:13;;;;;;;11.07;4.30;;;;;;;8.06;91.85;100133.06;7392247;19;20026;-58
2022/04/06 04:57:42;;;;;;;12.48;4.65;;;;;;;8.09;93.89;100132.09;7395770;19;20018;-57
2022/04/06 05:00:12;;;;;;;11.45;4.07;;;;;;;8.07;91.58;100134.78;7393097;19;20025;-56
2022/04/06 05:02:43;;;;;;;13.95;4.75;;;;;;;8.04;92.29;100119.25;7395108;19;20023;-53
2022/04/06 05:05:12;;;;;;;17.10;5.10;;;;;;;8.07;93.24;100124.34;7393237;19;20015;-58
2022/04/06 05:07:41;;;;;;;11.73;4.32;;;;;;;8.08;91.69;100122.56;7395399;19;20043;-58
2022/04/06 05:10:12;;;;;;;12.65;4.70;;;;;;;8.09;92.69;100121.66;7394778;19;20018;-56
2022/04/06 05:12:41;;;;;;;14.35;5.18;;;;;;;8.11;92.92;100110.25;7395324;19;20026;-55
2022/04/06 05:15:12;;;;;;;13.57;4.60;;;;;;;8.11;90.70;100104.19;7391009;19;20025;-58
2022/04/06 05:17:44;;;;;;;14.40;5.28;;;;;;;8.08;91.03;100106.91;7395603;19;20014;-56
2022/04/06 05:20:13;;;;;;;14.10;5.50;;;;;;;8.11;93.50;100097.19;7394622;19;20463;-52
2022/04/06 05:22:42;;;;;;;13.38;5.70;;;;;;;8.07;92.95;100105.25;7395314;19;20018;-52
2022/04/06 05:25:12;;;;;;;12.38;5.75;;;;;;;8.08;93.72;100102.56;7393271;19;20356;-55
2022/04/06 05:27:48;;;;;;;14.63;6.07;;;;;;;8.07;93.28;100100.84;7394562;19;20026;-56
2022/04/06 05:30:18;;;;;;;17.92;6.50;;;;;;;8.07;92.59;100094.81;7393840;19;20018;-59
2022/04/06 05:32:53;;;;;;;16.50;6.75;;;;;;;8.06;92.00;100093.94;7390201;19;20055;-56
2022/04/06 05:35:23;;;;;;;17.40;6.53;;;;;;;8.10;93.87;100094.66;7389392;19;20497;-60
2022/04/06 05:37:53;;;;;;;17.85;6.35;;;;;;;8.11;94.23;100097.19;7393484;19;20517;-55
2022/04/06 05:40:22;;;;;;;17.02;6.72;;;;;;;8.13;93.27;100104.94;7394081;19;20015;-57
2022/04/06 05:42:52;;;;;;;17.08;6.32;;;;;;;8.09;92.13;100101.63;7394062;19;20014;-54
2022/04/06 05:45:21;;;;;;;11.63;5.28;;;;;;;8.06;91.53;100100.94;7392040;19;20029;-56
2022/04/06 05:47:52;;;;;;;14.18;5.50;;;;;;;8.10;92.11;100100.72;7399964;19;20014;-55
2022/04/06 05:50:21;;;;;;;14.10;5.72;;;;;;;8.13;92.94;100099.72;7405957;19;20010;-56
2022/04/06 05:52:51;;;;;;;15.27;5.82;;;;;;;8.10;92.09;100100.72;7394777;19;20026;-58
2022/04/06 05:55:20;;;;;;;14.80;5.55;;;;;;;8.11;91.40;100094.59;7391813;19;20014;-56
2022/04/06 05:57:49;;;;;;;14.93;5.55;;;;;;;8.13;93.05;100084.06;7393661;19;20014;-56
2022/04/06 06:00:19;;;;;;;16.73;5.75;;;;;;;8.16;92.38;100089.16;7392868;19;20015;-50
2022/04/06 06:02:49;;;;;;;14.30;5.93;;;;;;;8.16;92.37;100088.31;7395234;19;20015;-55
2022/04/06 06:05:21;;;;;;;14.18;5.57;;;;;;;8.20;92.61;100092.47;7393373;19;20017;-49
2022/04/06 06:07:50;;;;;;;17.85;6.15;;;;;;;8.12;91.75;100088.47;7395052;19;20011;-51
2022/04/06 06:10:19;;;;;;;19.83;6.03;;;;;;;8.17;91.72;100082.16;7393782;19;20022;-59
2022/04/06 06:12:48;;;;;;;17.95;6.18;;;;;;;8.26;93.09;100087.78;7394662;19;20074;-56
2022/04/06 06:15:16;;;;;;;15.45;6.22;;;;;;;8.25;92.32;100087.88;7393413;19;20034;-54
2022/04/06 06:17:45;;;;;;;15.98;6.70;;;;;;;8.28;92.38;100087.72;7395565;19;20688;-56
2022/04/06 06:20:14;;;;;;;13.00;6.00;;;;;;;8.29;92.15;100084.22;7394541;19;20015;-56
2022/04/06 06:22:46;;;;;;;20.30;6.72;;;;;;;8.28;91.87;100087.72;7394794;19;20014;-55
2022/04/06 06:25:15;;;;;;;16.55;6.90;;;;;;;8.30;92.92;100093.75;7391907;19;20483;-55
2022/04/06 06:27:46;;;;;;;15.57;6.68;;;;;;;8.28;92.36;100085.97;7394580;19;20033;-56
2022/04/06 06:30:16;;;;;;;17.75;7.13;;;;;;;8.27;91.61;100080.84;7393944;19;20014;-52
2022/04/06 06:32:45;;;;;;;18.77;7.82;;;;;;;8.33;93.32;100085.75;7394745;19;20015;-52
2022/04/06 06:35:15;;;;;;;19.25;8.18;;;;;;;8.35;92.81;100096.13;7392843;19;20015;-56
2022/04/06 06:37:50;;;;;;;20.88;7.75;;;;;;;8.34;93.42;100091.81;7394003;19;20021;-55
2022/04/06 06:40:20;;;;;;;17.23;7.90;;;;;;;8.38;93.03;100095.97;7393556;19;20011;-53
2022/04/06 06:42:49;;;;;;;23.02;8.50;;;;;;;8.39;94.09;100085.47;7393097;19;20482;-56
2022/04/06 06:45:18;;;;;;;19.88;8.20;;;;;;;8.41;93.24;100086.25;7386436;19;20022;-57
2022/04/06 06:47:48;;;;;;;21.10;9.00;;;;;;;8.44;94.74;100086.13;7388867;19;20029;-55
2022/04/06 06:50:19;;;;;;;19.80;7.95;;;;;;;8.45;94.02;100080.00;7393464;19;20014;-52
2022/04/06 06:52:50;;;;;;;17.55;8.73;;;;;;;8.47;93.46;100077.31;7393279;19;20010;-58
2022/04/06 06:55:22;;;;;;;20.40;8.48;;;;;;;8.41;92.40;100082.78;7391020;19;20014;-54
2022/04/06 06:57:51;;;;;;;17.52;7.82;;;;;;;8.41;93.81;100083.63;7393345;19;20021;-52
2022/04/06 07:00:21;;;;;;;21.25;8.30;;;;;;;8.46;93.71;100078.22;7392850;19;20018;-64
2022/04/06 07:02:50;;;;;;;19.55;8.02;;;;;;;8.42;92.84;100076.66;7393115;19;20022;-54
2022/04/06 07:05:19;;;;;;;17.48;7.32;;;;;;;8.41;91.32;100067.97;7391633;19;20333;-56
2022/04/06 07:07:57;;;;;;;16.75;7.00;;;;;;;8.45;91.71;100077.41;7392514;19;20306;-55
2022/04/06 07:10:29;;;;;;;15.38;7.20;;;;;;;8.47;91.97;100064.25;7391891;19;20029;-58
2022/04/06 07:12:58;;;;;;;19.98;7.43;;;;;;;8.52;92.32;100072.69;7391932;19;20015;-55
2022/04/06 07:15:28;;;;;;;16.98;6.57;;;;;;;8.55;90.67;100066.50;7391532;19;20021;-56
2022/04/06 07:17:58;;;;;;;15.15;6.50;;;;;;;8.56;89.76;100081.25;7392035;19;20018;-57
2022/04/06 07:20:29;;;;;;;16.00;6.32;;;;;;;8.59;90.86;100076.72;7391439;19;20018;-54
2022/04/06 07:23:01;;;;;;;15.52;5.65;;;;;;;8.60;90.42;100067.97;7392011;19;20413;-55
2022/04/06 07:25:30;;;;;;;15.43;5.05;;;;;;;8.59;88.78;100066.25;7392788;19;20022;-55
2022/04/06 07:27:58;;;;;;;11.93;5.03;;;;;;;8.61;88.05;100059.22;7395049;19;20014;-53
2022/04/06 07:30:32;;;;;;;13.13;5.00;;;;;;;8.59;87.62;100066.25;7393051;19;20025;-54
2022/04/06 07:33:01;;;;;;;12.75;4.30;;;;;;;8.57;85.43;100051.63;7390338;19;20021;-58
2022/04/06 07:35:31;;;;;;;13.68;4.30;;;;;;;8.62;86.35;100054.84;7391228;19;20007;-57
2022/04/06 07:38:03;;;;;;;9.38;3.70;;;;;;;8.62;84.96;100049.63;7389954;19;20368;-55
2022/04/06 07:40:31;;;;;;;10.57;3.83;;;;;;;8.60;84.11;100041.84;7390426;19;20336;-57
2022/04/06 07:43:00;;;;;;;12.05;4.30;;;;;;;8.67;86.88;100050.25;7391222;19;20007;-57
2022/04/06 07:45:29;;;;;;;8.68;3.42;;;;;;;8.68;83.63;100043.25;7385983;19;20022;-60
2022/04/06 07:47:58;;;;;;;12.23;3.38;;;;;;;8.65;82.74;100031.19;7386428;19;20018;-56
2022/04/06 07:50:27;;;;;;;12.60;3.72;;;;;;;8.66;84.30;100031.09;7411110;19;20018;-59
2022/04/06 07:52:56;;;;;;;9.20;3.65;;;;;;;8.70;82.13;100025.72;7392268;19;20482;-58
2022/04/06 07:55:29;;;;;;;7.93;3.40;;;;;;;8.69;82.56;100024.06;7388914;19;20021;-56
2022/04/06 07:57:58;;;;;;;;;;;;;;;8.69;81.53;100032.72;7391192;19;20034;-60
2022/04/06 08:00:32;;;;;;;7.05;2.95;;;;;;;8.73;82.70;100030.81;7390994;19;20220;-55
2022/04/06 08:03:02;;;;;;;10.57;3.28;;;;;;;8.83;83.38;100013.75;7391110;19;20034;-53
2022/04/06 08:05:31;;;;;;;7.47;3.22;;;;;;;8.89;83.08;100023.06;7390774;19;20051;-52
2022/04/06 08:08:00;;;;;;;7.03;2.70;;;;;;;8.87;81.84;100014.44;7390496;19;20025;-58
2022/04/06 08:10:31;;;;;;;10.00;3.40;;;;;;;8.91;81.78;100019.47;7388469;19;20361;-57
2022/04/06 08:13:00;;;;;;;7.72;2.65;;;;;;;8.87;80.93;100014.44;7390658;19;20018;-58
2022/04/06 08:15:30;;;;;;;11.02;3.22;;;;;;;8.94;80.93;100016.69;7390268;19;20340;-56
2022/04/06 08:17:59;;;;;;;11.57;3.33;;;;;;;8.96;79.93;100014.00;7391170;19;20029;-58
2022/04/06 08:20:27;;;;;;;8.40;3.03;;;;;;;9.05;81.52;100015.28;7390692;19;20086;-58
2022/04/06 08:22:56;;;;;;;10.02;3.28;;;;;;;9.05;78.61;100023.13;7390486;19;20017;-59
2022/04/06 08:25:25;;;;;;;11.48;3.15;;;;;;;8.95;78.17;100017.50;7387828;19;20011;-58
2022/04/06 08:27:57;;;;;;;12.10;3.50;;;;;;;9.01;79.63;100017.19;7390511;19;20022;-53
2022/04/06 08:30:25;;;;;;;7.43;3.50;;;;;;;9.04;79.39;100027.53;7389843;19;20026;-58
2022/04/06 08:32:58;;;;;;;7.78;2.95;;;;;;;8.93;78.48;100022.81;7390340;19;20023;-57
2022/04/06 08:35:27;;;;;;;11.15;3.63;;;;;;;8.93;81.12;100014.97;7388864;19;20046;-57
2022/04/06 08:37:56;;;;;;;9.80;3.30;;;;;;;8.95;80.05;100018.34;7389828;19;20134;-57
2022/04/06 08:40:25;;;;;;;11.05;3.80;;;;;;;8.95;79.65;100018.34;7389417;19;20011;-56
2022/04/06 08:42:57;;;;;;;11.15;3.95;;;;;;;8.97;80.96;100010.47;7390141;19;20021;-57
2022/04/06 08:45:26;;;;;;;6.38;3.10;;;;;;;8.92;80.24;100007.22;7387298;19;20018;-57
2022/04/06 08:47:55;;;;;;;9.82;4.40;;;;;;;8.97;81.44;100016.53;7389597;19;20039;-58
2022/04/06 08:50:30;;;;;;;10.82;4.00;;;;;;;8.95;81.46;100017.50;7392037;19;20033;-59
2022/04/06 08:53:00;;;;;;;12.48;4.35;;;;;;;9.01;81.04;100025.03;7395814;19;20026;-58
2022/04/06 08:55:29;;;;;;;11.05;4.60;;;;;;;8.88;82.22;100016.13;7395447;19;20023;-57
2022/04/06 08:58:02;;;;;;;15.45;5.10;;;;;;;8.84;84.37;100015.47;7396133;19;20011;-58
2022/04/06 09:00:30;;;;;;;11.85;5.40;;;;;;;8.72;86.36;100010.84;7395433;19;20022;-57
2022/04/06 09:03:00;;;;;;;12.02;5.40;;;;;;;8.71;87.53;100014.34;7396082;19;20015;-56
2022/04/06 09:05:32;;;;;;;10.35;5.82;;;;;;;8.57;88.71;100010.66;7398393;19;20037;-56
2022/04/06 09:08:02;;;;;;;18.17;6.28;;;;;;;8.59;91.44;100008.81;7396872;19;20060;-55
2022/04/06 09:10:33;;;;;;;11.73;6.00;;;;;;;8.51;91.95;100018.81;7395140;19;20018;-54
2022/04/06 09:13:18;;;;;;;14.65;6.85;;;;;;;8.52;93.26;100014.44;7393938;19;20022;-57
2022/04/06 09:15:46;;;;;;;13.70;6.72;;;;;;;8.53;94.01;100016.97;7394212;19;20011;-57
2022/04/06 09:18:17;;;;;;;14.63;6.50;;;;;;;8.47;92.34;100020.72;7395435;19;20111;-55
2022/04/06 09:20:46;;;;;;;17.30;6.93;;;;;;;8.48;92.79;100008.50;7394154;19;20019;-56
2022/04/06 09:23:15;;;;;;;14.55;7.57;;;;;;;8.46;94.62;100020.78;7394608;19;20006;-58
2022/04/06 09:25:44;;;;;;;13.90;7.78;;;;;;;8.38;96.90;100017.66;7395207;19;20022;-57
2022/04/06 09:28:17;;;;;;;15.43;7.60;;;;;;;8.29;97.38;100025.00;7396112;19;20467;-56
2022/04/06 09:30:47;;;;;;;14.23;8.35;;;;;;;8.20;97.09;100019.41;7394304;19;20019;-58
2022/04/06 09:33:18;;;;;;;14.77;8.38;;;;;;;8.24;98.58;100016.56;7394439;19;20019;-55
2022/04/06 09:35:47;;;;;;;21.02;8.20;;;;;;;8.21;97.81;100027.16;7393123;19;20023;-53
2022/04/06 09:38:19;;;;;;;15.68;9.15;;;;;;;8.27;97.90;100020.81;7395093;19;20079;-59
2022/04/06 09:40:49;;;;;;;15.93;8.68;;;;;;;8.28;97.24;100019.88;7395473;19;20022;-58
2022/04/06 09:43:32;;;;;;;17.27;8.55;;;;;;;8.30;97.55;100023.25;7394262;19;20014;-58
2022/04/06 09:49:01;;;;;;;22.35;10.35;;;;;;;8.13;100.00;100014.44;7402428;19;20018;-59
2022/04/06 09:51:30;;;;;;;20.55;11.00;;;;;;;8.10;100.00;100014.59;7409122;19;20094;-57
2022/04/06 09:54:01;;;;;;;24.50;12.32;;;;;;;8.07;100.00;100012.13;7394322;19;20018;-58
2022/04/06 09:56:30;;;;;;;22.60;12.02;;;;;;;8.07;100.00;100011.31;7392806;19;20073;-56
2022/04/06 09:59:02;;;;;;;24.58;12.25;;;;;;;8.05;100.00;100013.13;7394332;19;20025;-59
2022/04/06 10:01:34;;;;;;;19.55;11.05;;;;;;;8.00;100.00;100009.91;7395133;19;20471;-57
2022/04/06 10:04:06;;;;;;;24.25;13.18;;;;;;;8.00;100.00;100004.69;7392577;19;20034;-59
2022/04/06 10:06:37;;;;;;;24.80;12.40;;;;;;;8.07;100.00;100008.69;7393948;19;20026;-60
2022/04/06 10:09:08;;;;;;;25.52;12.55;;;;;;;8.09;100.00;100005.06;7393408;19;20068;-53
2022/04/06 10:11:38;;;;;;;26.58;13.23;;;;;;;8.08;100.00;100002.53;7395009;19;20416;-59
2022/04/06 10:14:11;;;;;;;23.02;13.25;;;;;;;8.07;100.00;100003.47;7392219;19;20010;-58
2022/04/06 10:16:41;;;;;;;22.42;13.75;;;;;;;8.08;100.00;100006.00;7392051;19;20029;-57
2022/04/06 10:19:15;;;;;;;24.77;13.20;;;;;;;8.04;100.00;99995.78;7392407;19;20025;-55
2022/04/06 10:21:53;;;;;;;25.38;14.43;;;;;;;8.09;100.00;100001.63;7393770;19;20023;-56
2022/04/06 10:24:31;;;;;;;23.10;13.93;;;;;;;8.00;100.00;99992.47;7391746;19;20086;-59
2022/04/06 10:27:10;;;;;;;22.60;13.68;;;;;;;8.05;100.00;99982.69;7392513;19;20407;-58
2022/04/06 10:30:09;;;;;;;22.42;13.70;;;;;;;8.07;100.00;99988.66;7396058;19;20025;-58
2022/04/06 10:32:41;;;;;;;23.17;14.30;;;;;;;8.05;100.00;99984.44;7393947;19;20026;-59
2022/04/06 10:35:21;;;;;;;22.85;13.98;;;;;;;8.07;100.00;99974.78;7391337;19;20026;-57
2022/04/06 10:37:52;;;;;;;23.92;12.70;;;;;;;8.03;100.00;99984.50;7394754;19;20373;-60
2022/04/06 10:40:21;;;;;;;26.17;12.68;;;;;;;8.05;100.00;99974.84;7395047;19;20018;-56
2022/04/06 10:42:50;;;;;;;28.23;13.05;;;;;;;8.08;100.00;99968.63;7392490;19;20014;-59
2022/04/06 10:45:37;;;;;;;23.08;13.43;;;;;;;8.07;100.00;99965.19;7391129;19;20010;-58
2022/04/06 10:48:19;;;;;;;22.80;13.90;;;;;;;8.07;100.00;99977.38;7402506;19;20014;-54
2022/04/06 10:50:49;;;;;;;22.80;13.35;;;;;;;8.09;100.00;99978.16;7400804;19;20018;-58
2022/04/06 10:53:31;;;;;;;25.23;13.48;;;;;;;8.06;100.00;99963.47;7394410;19;20057;-61
2022/04/06 10:56:03;;;;;;;28.55;14.55;;;;;;;8.06;100.00;99970.47;7393559;19;20019;-60
2022/04/06 10:59:09;;;;;;;23.65;13.23;;;;;;;7.99;100.00;99956.03;7394319;19;20007;-57
2022/04/06 11:01:44;;;;;;;20.98;13.50;;;;;;;8.01;100.00;99964.63;7398123;19;20139;-60
2022/04/06 11:04:21;;;;;;;26.63;15.07;;;;;;;8.06;100.00;99947.81;7392743;19;20014;-59
2022/04/06 11:06:55;;;;;;;25.52;15.18;;;;;;;8.08;100.00;99948.63;7393375;19;20031;-61
2022/04/06 11:12:11;;;;;;;23.65;14.57;;;;;;;8.12;100.00;99955.38;7391913;19;20054;-60
2022/04/06 11:14:41;;;;;;;23.30;14.15;;;;;;;8.14;100.00;99957.91;7389711;19;20010;-62
2022/04/06 11:17:41;;;;;;;23.58;13.90;;;;;;;8.18;100.00;99956.84;7392680;19;20516;-60
2022/04/06 11:20:15;;;;;;;20.98;13.57;;;;;;;8.16;100.00;99950.00;7393103;19;20019;-61
2022/04/06 11:22:46;;;;;;;20.92;13.60;;;;;;;8.20;100.00;99941.94;7394940;19;20035;-60
2022/04/06 11:25:17;;;;;;;22.40;14.10;;;;;;;8.26;100.00;99948.63;7393326;19;20018;-63
2022/04/06 11:27:48;;;;;;;22.35;14.70;;;;;;;8.32;100.00;99933.53;7394560;19;20022;-60
2022/04/06 11:30:19;;;;;;;21.98;14.90;;;;;;;8.38;100.00;99939.34;7392798;19;20368;-57
2022/04/06 11:32:56;;;;;;;20.08;13.57;;;;;;;8.41;100.00;99942.66;7394411;19;20025;-60
2022/04/06 11:35:33;;;;;;;23.15;13.55;;;;;;;8.49;100.00;99931.88;7384466;19;20033;-61
2022/04/06 11:38:05;;;;;;;20.60;13.05;;;;;;;8.50;100.00;99936.19;7386916;19;20404;-61
2022/04/06 11:40:37;;;;;;;20.45;12.82;;;;;;;8.52;100.00;99929.09;7390915;19;20025;-61
2022/04/06 11:43:07;;;;;;;23.20;12.80;;;;;;;8.55;100.00;99925.50;7391092;19;20337;-59